Time;durP1;ratioP1;P1;durP2;ratioP2;P2;SDS_P1;SDS_P2;PMS_P1;PMS_P2;Temp;Humidity;BMP_temperature;BMP_pressure;BME280_temperature;BME280_humidity;BME280_pressure;Samples;Min_cycle;Max_cycle;Signal;HPM_P1;HPM_P2
2023/08/15 00:00:51;;;;;;;9.23;4.27;;;;;;;24.32;42.32;101433.25;5011684;28;20392;-69
2023/08/15 00:03:16;;;;;;;7.75;4.20;;;;;;;24.21;42.67;101426.00;5011048;28;20490;-69
2023/08/15 00:05:42;;;;;;;7.50;4.50;;;;;;;24.17;42.68;101431.09;5011068;28;20702;-69
2023/08/15 00:08:07;;;;;;;7.63;4.20;;;;;;;24.10;42.78;101430.44;5011409;28;20384;-69
2023/08/15 00:10:33;;;;;;;5.90;4.20;;;;;;;24.03;42.94;101441.41;5012268;28;20876;-69
2023/08/15 00:12:58;;;;;;;8.07;4.10;;;;;;;23.91;42.88;101431.69;5012116;28;20392;-69
2023/08/15 00:15:24;;;;;;;5.72;4.10;;;;;;;23.91;42.61;101440.63;5012496;28;20430;-69
2023/08/15 00:17:49;;;;;;;6.77;4.10;;;;;;;23.97;42.80;101431.53;5011389;28;20458;-69
2023/08/15 00:20:15;;;;;;;6.47;4.10;;;;;;;23.95;42.51;101425.56;5011366;28;20710;-70
2023/08/15 00:22:41;;;;;;;6.30;4.20;;;;;;;23.84;42.84;101435.38;5011598;28;20380;-69
2023/08/15 00:25:07;;;;;;;8.20;4.13;;;;;;;23.76;42.97;101432.19;5004636;28;20396;-69
2023/08/15 00:27:32;;;;;;;9.73;4.10;;;;;;;23.77;42.70;101429.25;5010780;28;20455;-69
2023/08/15 00:29:58;;;;;;;9.97;4.20;;;;;;;23.83;42.32;101428.28;5010676;28;20376;-70
2023/08/15 00:32:23;;;;;;;6.47;4.20;;;;;;;23.84;42.37;101432.66;5009856;28;20412;-70
2023/08/15 00:34:48;;;;;;;8.17;4.20;;;;;;;23.82;42.51;101431.25;5010420;28;20396;-70
2023/08/15 00:37:14;;;;;;;7.10;4.03;;;;;;;23.66;42.77;101430.09;5011371;28;20380;-70
2023/08/15 00:39:39;;;;;;;7.13;4.10;;;;;;;23.58;43.41;101434.00;5009733;28;20411;-70
2023/08/15 00:42:05;;;;;;;5.47;3.70;;;;;;;23.47;43.47;101430.25;5010380;28;20490;-70
2023/08/15 00:44:30;;;;;;;5.47;3.80;;;;;;;23.35;43.66;101434.84;5010561;28;20733;-70
2023/08/15 00:46:56;;;;;;;7.70;4.07;;;;;;;23.24;44.24;101424.88;5009832;28;20453;-70
2023/08/15 00:49:21;;;;;;;5.50;3.83;;;;;;;23.13;44.24;101429.25;5009672;28;20384;-70
2023/08/15 00:51:48;;;;;;;4.60;3.60;;;;;;;23.09;44.52;101425.38;5010728;28;20395;-70
2023/08/15 00:54:14;;;;;;;5.30;3.80;;;;;;;23.04;44.50;101428.78;5009617;28;20494;-70
2023/08/15 00:56:40;;;;;;;6.77;3.90;;;;;;;23.15;44.32;101437.13;5010697;28;20388;-70
2023/08/15 00:59:06;;;;;;;5.03;3.75;;;;;;;23.17;44.20;101432.31;5010049;28;20954;-70
2023/08/15 01:01:33;;;;;;;5.38;4.03;;;;;;;23.22;44.31;101427.00;5009480;28;20726;-70
2023/08/15 01:03:59;;;;;;;7.82;3.80;;;;;;;23.33;44.07;101423.47;5009692;28;20384;-70
2023/08/15 01:06:24;;;;;;;6.80;4.03;;;;;;;23.38;43.71;101428.16;5010202;28;20380;-70
2023/08/15 01:08:50;;;;;;;6.87;3.97;;;;;;;23.27;44.01;101427.94;5009878;28;20395;-70
2023/08/15 01:11:15;;;;;;;7.70;4.07;;;;;;;23.32;44.02;101432.66;5010317;28;20869;-70
2023/08/15 01:13:50;;;;;;;7.07;4.10;;;;;;;23.36;44.02;101419.47;5009882;28;20388;-70
2023/08/15 01:16:23;;;;;;;7.35;4.20;;;;;;;23.38;43.94;101430.88;5009960;28;20458;-70
2023/08/15 01:18:55;;;;;;;5.50;3.88;;;;;;;23.35;44.09;101418.63;5009505;28;20411;-70
2023/08/15 01:21:27;;;;;;;5.72;4.03;;;;;;;23.25;44.19;101416.53;5009211;28;20380;-70
2023/08/15 01:23:53;;;;;;;6.68;4.00;;;;;;;23.28;44.34;101415.22;4999696;28;20702;-70
2023/08/15 01:26:18;;;;;;;7.57;4.32;;;;;;;23.37;44.02;101418.41;5009154;28;20396;-70
2023/08/15 01:28:44;;;;;;;5.83;4.00;;;;;;;23.34;43.94;101413.47;5008960;28;20773;-70
2023/08/15 01:31:42;;;;;;;5.95;4.07;;;;;;;23.28;44.22;101413.38;5009434;28;20469;-70
2023/08/15 01:34:51;;;;;;;8.32;4.03;;;;;;;23.30;44.46;101405.03;5001510;28;20406;-70
2023/08/15 01:37:25;;;;;;;5.50;3.75;;;;;;;23.34;44.32;101416.19;4984916;28;20382;-70
2023/08/15 01:39:54;;;;;;;6.35;4.18;;;;;;;23.25;44.19;101404.91;5007737;28;20828;-71
2023/08/15 01:42:22;;;;;;;5.67;4.20;;;;;;;23.26;44.32;101403.81;5008904;28;20392;-70
2023/08/15 01:44:48;;;;;;;5.47;3.90;;;;;;;23.30;44.23;101405.03;5010513;28;20711;-71
2023/08/15 01:47:14;;;;;;;6.53;4.10;;;;;;;23.28;43.94;101397.13;5009602;28;20475;-71
2023/08/15 01:49:40;;;;;;;5.90;3.88;;;;;;;23.27;44.47;101395.47;5008954;28;20494;-71
2023/08/15 01:52:05;;;;;;;6.43;3.77;;;;;;;23.16;44.40;101392.81;5010098;28;20372;-71
2023/08/15 01:54:31;;;;;;;7.60;3.85;;;;;;;23.04;44.72;101398.19;5009196;28;20388;-70
2023/08/15 01:56:56;;;;;;;11.20;3.80;;;;;;;22.90;45.29;101382.22;5009171;28;20400;-71
2023/08/15 01:59:22;;;;;;;6.33;3.60;;;;;;;22.81;45.50;101394.41;5009216;28;20411;-71
2023/08/15 02:01:47;;;;;;;5.70;3.80;;;;;;;22.74;45.74;101398.31;5007962;28;20395;-71
2023/08/15 02:04:12;;;;;;;6.70;3.87;;;;;;;22.63;46.01;101398.06;5008786;28;20399;-71
2023/08/15 02:06:38;;;;;;;6.20;3.77;;;;;;;22.48;45.88;101386.91;5009772;28;20383;-71
2023/08/15 02:09:04;;;;;;;7.53;4.07;;;;;;;22.46;45.88;101395.22;5008805;28;20376;-70
2023/08/15 02:11:29;;;;;;;4.10;3.50;;;;;;;22.41;46.10;101386.19;5009313;28;20396;-71
2023/08/15 02:13:55;;;;;;;5.72;3.80;;;;;;;22.42;46.22;101387.81;5009325;28;20740;-71
2023/08/15 02:16:20;;;;;;;7.87;4.30;;;;;;;22.43;46.21;101382.19;5008615;28;20458;-71
2023/08/15 02:18:45;;;;;;;6.67;3.63;;;;;;;22.44;46.08;101383.03;5008883;28;20404;-69
2023/08/15 02:21:11;;;;;;;8.20;4.40;;;;;;;22.42;46.17;101387.81;5010011;28;20384;-69
2023/08/15 02:23:36;;;;;;;7.30;3.97;;;;;;;22.31;46.23;101387.56;5008387;28;20471;-69
2023/08/15 02:26:02;;;;;;;5.97;3.90;;;;;;;22.29;46.34;101392.38;5009030;28;20457;-69
2023/08/15 02:28:28;;;;;;;7.90;4.03;;;;;;;22.17;46.73;101396.09;5008435;28;20383;-69
2023/08/15 02:30:54;;;;;;;5.70;3.83;;;;;;;22.07;46.97;101404.72;5008838;28;20438;-69
2023/08/15 02:33:19;;;;;;;6.20;3.83;;;;;;;21.79;47.71;101406.16;5008751;28;20395;-70
2023/08/15 02:35:44;;;;;;;4.57;3.80;;;;;;;21.72;47.98;101413.53;5009108;28;20395;-69
2023/08/15 02:38:10;;;;;;;6.10;4.07;;;;;;;21.72;47.94;101414.34;5010118;28;20400;-71
2023/08/15 02:40:35;;;;;;;5.67;4.00;;;;;;;21.77;47.83;101417.19;5013417;28;20853;-69
2023/08/15 02:43:02;;;;;;;6.65;3.78;;;;;;;21.73;48.05;101425.94;5012853;28;20972;-69
2023/08/15 02:45:27;;;;;;;5.63;3.92;;;;;;;21.70;48.15;101421.84;5012551;28;20900;-69
2023/08/15 02:47:53;;;;;;;4.63;4.03;;;;;;;21.73;48.03;101429.50;5017572;28;20491;-69
2023/08/15 02:50:18;;;;;;;5.90;4.00;;;;;;;21.75;47.84;101423.84;5012502;28;20376;-69
2023/08/15 02:52:43;;;;;;;8.90;4.40;;;;;;;21.82;47.86;101418.34;5011737;28;20737;-68
2023/08/15 02:55:09;;;;;;;8.77;5.37;;;;;;;21.96;47.41;101427.94;5013492;28;20384;-70
2023/08/15 02:57:35;;;;;;;9.10;5.00;;;;;;;21.93;47.33;101415.72;5012235;28;20400;-69
2023/08/15 03:00:00;;;;;;;10.67;4.83;;;;;;;21.94;47.33;101419.25;5013111;28;20543;-69
2023/08/15 03:02:27;;;;;;;9.57;5.53;;;;;;;21.93;47.17;101418.44;5012289;28;20475;-70
2023/08/15 03:04:52;;;;;;;7.20;4.78;;;;;;;21.96;47.21;101433.31;5011638;28;20384;-70
2023/08/15 03:07:18;;;;;;;6.10;4.43;;;;;;;22.04;47.13;101424.06;5012193;28;20407;-70
2023/08/15 03:09:43;;;;;;;8.05;4.32;;;;;;;22.13;46.75;101426.25;5011787;28;21008;-70
2023/08/15 03:12:08;;;;;;;8.30;4.57;;;;;;;22.14;46.72;101427.06;5011102;28;20779;-70
2023/08/15 03:14:34;;;;;;;9.53;4.83;;;;;;;22.17;46.70;101436.59;5011789;28;20391;-70
2023/08/15 03:17:02;;;;;;;7.20;4.80;;;;;;;22.17;46.50;101439.28;5012173;28;20393;-70
2023/08/15 03:19:28;;;;;;;8.35;4.40;;;;;;;22.17;46.69;101442.00;5010815;28;20416;-70
2023/08/15 03:21:53;;;;;;;6.07;4.53;;;;;;;22.19;46.59;101440.69;5011817;28;20494;-70
2023/08/15 03:24:19;;;;;;;9.02;4.68;;;;;;;22.25;46.42;101441.66;5011350;28;20779;-69
2023/08/15 03:26:44;;;;;;;11.23;4.97;;;;;;;22.35;46.21;101449.25;5010489;28;20388;-69
2023/08/15 03:29:10;;;;;;;7.70;4.82;;;;;;;22.36;46.37;101448.19;5010737;28;20380;-70
2023/08/15 03:31:35;;;;;;;7.60;4.50;;;;;;;22.43;46.40;101454.31;5010246;28;20420;-69
2023/08/15 03:34:01;;;;;;;10.50;4.90;;;;;;;22.42;46.05;101455.34;5011374;28;20430;-71
2023/08/15 03:36:26;;;;;;;7.15;4.20;;;;;;;22.41;46.10;101464.53;5012018;28;20399;-70
2023/08/15 03:38:52;;;;;;;8.10;4.23;;;;;;;22.37;46.36;101468.75;5010804;28;20462;-70
2023/08/15 03:41:18;;;;;;;7.32;4.05;;;;;;;22.34;46.77;101470.00;5010901;28;20407;-70
2023/08/15 03:43:43;;;;;;;7.00;4.23;;;;;;;22.35;46.65;101468.97;5010751;28;20392;-70
2023/08/15 03:46:09;;;;;;;7.20;4.30;;;;;;;22.32;46.62;101466.72;5009842;28;20376;-70
2023/08/15 03:48:35;;;;;;;6.93;4.70;;;;;;;22.24;46.84;101464.34;5010264;28;20880;-71
2023/08/15 03:51:01;;;;;;;8.30;4.50;;;;;;;22.19;47.08;101461.50;5010555;28;20798;-70
2023/08/15 03:53:27;;;;;;;9.07;5.00;;;;;;;22.29;46.75;101476.13;5008948;28;20467;-70
2023/08/15 03:55:54;;;;;;;13.37;5.80;;;;;;;22.35;46.68;101479.78;5007545;28;20427;-70
2023/08/15 03:58:20;;;;;;;11.27;5.20;;;;;;;22.27;47.23;101482.78;5010555;28;20408;-71
2023/08/15 04:00:46;;;;;;;11.23;5.43;;;;;;;22.28;47.37;101474.47;5006543;28;20433;-70
2023/08/15 04:03:12;;;;;;;7.72;5.00;;;;;;;22.33;47.25;101479.19;5010600;28;20406;-70
2023/08/15 04:05:38;;;;;;;7.72;5.00;;;;;;;22.29;47.50;101477.97;5010037;28;20383;-70
2023/08/15 04:08:03;;;;;;;9.43;4.80;;;;;;;22.31;47.29;101468.59;5008729;28;20390;-70
2023/08/15 04:10:29;;;;;;;9.98;4.97;;;;;;;22.27;47.31;101469.28;5008751;28;20400;-70
2023/08/15 04:12:55;;;;;;;9.88;5.20;;;;;;;22.25;47.21;101464.06;5010338;28;20384;-69
2023/08/15 04:15:22;;;;;;;11.05;5.32;;;;;;;22.18;47.65;101467.94;5010290;28;20380;-69
2023/08/15 04:17:47;;;;;;;9.23;4.90;;;;;;;22.20;47.66;101465.81;5022300;28;20384;-71
2023/08/15 04:20:13;;;;;;;11.47;5.00;;;;;;;22.26;47.57;101465.75;5010061;28;20804;-70
2023/08/15 04:22:39;;;;;;;10.10;5.13;;;;;;;22.33;47.46;101480.00;5010393;28;20403;-70
2023/08/15 04:25:07;;;;;;;12.10;5.57;;;;;;;22.45;46.98;101476.50;5009680;28;20388;-70
2023/08/15 04:27:33;;;;;;;11.93;5.15;;;;;;;22.51;47.28;101484.53;5009475;28;20471;-70
2023/08/15 04:29:58;;;;;;;10.00;5.40;;;;;;;22.52;47.06;101477.22;5010502;28;20380;-70
2023/08/15 04:32:24;;;;;;;10.80;6.05;;;;;;;22.58;47.28;101491.69;5010971;28;20422;-70
2023/08/15 04:34:49;;;;;;;14.43;6.63;;;;;;;22.62;46.97;101498.31;5009541;28;20391;-70
2023/08/15 04:37:14;;;;;;;15.50;6.23;;;;;;;22.56;47.28;101494.63;5011166;28;20471;-70
2023/08/15 04:39:40;;;;;;;9.30;5.68;;;;;;;22.43;47.66;101513.75;5010049;28;20453;-70
2023/08/15 04:42:06;;;;;;;12.90;5.70;;;;;;;22.44;47.70;101510.00;5010858;28;20406;-70
2023/08/15 04:44:31;;;;;;;8.77;5.33;;;;;;;22.46;47.78;101519.50;5011107;28;20422;-70
2023/08/15 04:46:56;;;;;;;8.52;4.88;;;;;;;22.60;46.98;101505.78;5010287;28;20392;-69
2023/08/15 04:49:22;;;;;;;7.97;4.90;;;;;;;22.73;47.00;101507.50;5009564;28;20380;-69
2023/08/15 04:51:47;;;;;;;12.43;5.57;;;;;;;22.82;46.87;101506.91;5010036;28;20431;-69
2023/08/15 04:54:13;;;;;;;11.05;5.13;;;;;;;22.91;46.71;101502.00;5009442;28;20411;-70
2023/08/15 04:56:38;;;;;;;10.77;5.40;;;;;;;22.99;46.53;101501.63;5008986;28;20404;-70
2023/08/15 04:59:04;;;;;;;8.80;5.23;;;;;;;23.08;46.33;101491.31;5008620;28;20903;-69
2023/08/15 05:01:30;;;;;;;13.00;5.65;;;;;;;23.11;46.96;101500.88;5007870;28;20435;-69
2023/08/15 05:03:55;;;;;;;8.87;5.67;;;;;;;23.10;46.94;101497.31;5008345;28;20474;-70
2023/08/15 05:06:20;;;;;;;14.67;6.73;;;;;;;23.07;47.06;101498.63;5008724;28;20733;-70
2023/08/15 05:08:46;;;;;;;13.33;6.33;;;;;;;23.06;47.67;101506.97;5007843;28;20430;-70
2023/08/15 05:11:11;;;;;;;15.48;5.68;;;;;;;23.03;48.08;101510.09;5008271;28;20714;-70
2023/08/15 05:13:37;;;;;;;7.57;4.97;;;;;;;22.77;48.32;101490.56;5009987;28;20726;-70
2023/08/15 05:16:03;;;;;;;9.07;5.23;;;;;;;22.67;48.87;101496.53;5010056;28;20372;-70
2023/08/15 05:18:28;;;;;;;7.65;5.03;;;;;;;22.70;48.59;101503.34;5009549;28;20412;-70
2023/08/15 05:20:53;;;;;;;8.43;4.97;;;;;;;22.73;48.59;101497.50;5010181;28;20398;-69
2023/08/15 05:23:19;;;;;;;11.23;5.30;;;;;;;22.79;48.58;101496.56;5009067;28;20372;-70
2023/08/15 05:25:46;;;;;;;9.63;5.00;;;;;;;22.86;48.17;101499.97;5009293;28;20538;-70
2023/08/15 05:28:11;;;;;;;8.23;4.88;;;;;;;23.00;47.90;101507.88;5010333;28;20396;-71
2023/08/15 05:30:37;;;;;;;9.63;4.53;;;;;;;23.18;47.63;101510.50;5009499;28;20469;-71
2023/08/15 05:33:03;;;;;;;8.10;5.10;;;;;;;23.42;47.50;101508.59;5009625;28;20725;-69
2023/08/15 05:35:29;;;;;;;8.03;4.97;;;;;;;23.56;47.21;101516.50;5009420;28;20397;-69
2023/08/15 05:37:54;;;;;;;7.85;4.72;;;;;;;23.64;47.14;101521.53;5008206;28;20491;-69
2023/08/15 05:40:21;;;;;;;10.80;4.93;;;;;;;23.69;47.32;101529.75;5008754;28;20411;-70
2023/08/15 05:42:46;;;;;;;13.55;6.28;;;;;;;23.69;46.97;101532.47;5010275;28;20835;-70
2023/08/15 05:45:12;;;;;;;12.40;6.40;;;;;;;23.73;47.31;101544.47;5009917;28;20865;-69
2023/08/15 05:47:38;;;;;;;16.60;6.30;;;;;;;23.72;48.03;101545.53;5009282;28;20396;-70
2023/08/15 05:50:04;;;;;;;10.03;6.00;;;;;;;23.69;47.96;101551.41;5009276;28;20376;-70
2023/08/15 05:52:29;;;;;;;12.02;6.40;;;;;;;23.76;48.40;101540.47;5009229;28;20841;-70
2023/08/15 05:54:55;;;;;;;12.60;5.63;;;;;;;23.81;48.50;101549.56;5009067;28;20531;-70
2023/08/15 05:57:21;;;;;;;16.05;6.22;;;;;;;23.83;48.55;101550.13;5008904;28;20383;-70
2023/08/15 05:59:46;;;;;;;10.98;5.93;;;;;;;23.88;48.40;101549.44;5008314;28;20411;-70
2023/08/15 06:02:13;;;;;;;13.40;7.00;;;;;;;23.96;48.33;101548.22;5009256;28;20399;-70
2023/08/15 06:04:39;;;;;;;15.40;6.95;;;;;;;24.05;48.24;101566.56;5008624;28;20467;-70
2023/08/15 06:07:05;;;;;;;10.30;5.83;;;;;;;24.21;47.69;101569.59;5009569;28;20712;-70
2023/08/15 06:09:31;;;;;;;12.30;5.43;;;;;;;24.24;47.40;101566.41;5008576;28;20368;-70
2023/08/15 06:11:56;;;;;;;12.07;5.50;;;;;;;24.26;47.46;101561.56;5008882;28;20392;-70
2023/08/15 06:14:22;;;;;;;11.00;5.37;;;;;;;24.33;47.28;101567.69;5012258;28;20380;-69
2023/08/15 06:16:48;;;;;;;9.00;5.30;;;;;;;24.28;46.88;101555.91;5013509;28;20384;-69
2023/08/15 06:19:13;;;;;;;9.70;4.50;;;;;;;24.32;46.80;101559.78;5015973;28;20400;-69
2023/08/15 06:21:42;;;;;;;9.95;4.55;;;;;;;24.44;46.70;101560.56;5013077;28;20767;-71
2023/08/15 06:24:09;;;;;;;8.93;4.65;;;;;;;24.38;46.74;101561.50;5013348;28;20415;-70
2023/08/15 06:26:35;;;;;;;5.78;4.57;;;;;;;24.48;46.47;101577.97;5012531;28;20800;-70
2023/08/15 06:29:00;;;;;;;8.40;4.40;;;;;;;24.47;46.08;101573.63;5012414;28;20863;-69
2023/08/15 06:31:26;;;;;;;8.73;4.63;;;;;;;24.43;46.00;101561.63;5012896;28;20495;-69
2023/08/15 06:33:51;;;;;;;7.83;4.33;;;;;;;24.48;46.10;101569.84;5012099;28;20453;-70
2023/08/15 06:36:17;;;;;;;6.97;4.43;;;;;;;24.59;45.74;101562.75;5013135;28;20483;-70
2023/08/15 06:38:42;;;;;;;6.67;4.43;;;;;;;24.67;45.44;101550.69;5012781;28;20409;-70
2023/08/15 06:41:08;;;;;;;8.07;4.37;;;;;;;24.61;45.31;101566.88;5011179;28;20392;-70
2023/08/15 06:43:33;;;;;;;7.00;4.80;;;;;;;24.84;45.19;101577.84;5012177;28;20380;-70
2023/08/15 06:45:59;;;;;;;7.40;4.55;;;;;;;24.98;45.03;101587.31;5012642;28;20408;-70
2023/08/15 06:48:25;;;;;;;6.30;3.90;;;;;;;25.00;44.94;101579.75;5011397;28;20396;-70
2023/08/15 06:50:51;;;;;;;6.13;4.40;;;;;;;24.48;45.67;101575.25;5012473;28;20399;-69
2023/08/15 06:53:16;;;;;;;8.38;4.85;;;;;;;24.46;46.19;101596.38;5011966;28;20391;-71
2023/08/15 06:55:42;;;;;;;7.40;4.63;;;;;;;24.69;45.94;101595.50;5012119;28;20407;-70
2023/08/15 06:58:07;;;;;;;9.40;4.80;;;;;;;24.83;45.88;101608.72;5012090;28;20435;-70
2023/08/15 07:00:33;;;;;;;9.80;4.70;;;;;;;24.84;45.98;101605.78;5008889;28;20730;-69
2023/08/15 07:02:58;;;;;;;8.47;4.97;;;;;;;24.74;46.84;101592.88;5011904;28;20439;-70
2023/08/15 07:05:24;;;;;;;10.70;5.57;;;;;;;24.57;48.03;101600.94;5014389;28;20392;-74
2023/08/15 07:07:50;;;;;;;14.10;6.70;;;;;;;24.51;48.79;101582.91;5012726;28;20394;-79
2023/08/15 07:10:16;;;;;;;9.52;5.32;;;;;;;24.45;49.49;101573.03;5013230;28;20372;-75
2023/08/15 07:12:41;;;;;;;16.67;6.27;;;;;;;24.23;50.75;101571.00;5013134;28;20391;-72
2023/08/15 07:15:07;;;;;;;11.80;6.43;;;;;;;24.26;51.03;101577.00;5012388;28;20399;-71
2023/08/15 07:17:32;;;;;;;14.05;6.32;;;;;;;24.17;51.44;101577.38;5012394;28;20841;-71
2023/08/15 07:19:58;;;;;;;13.80;7.03;;;;;;;24.30;52.09;101584.41;5013071;28;20439;-72
2023/08/15 07:22:23;;;;;;;12.53;6.40;;;;;;;24.36;52.46;101593.47;5013331;28;20875;-72
2023/08/15 07:24:49;;;;;;;14.05;6.78;;;;;;;24.39;52.40;101592.97;5011955;28;21019;-72
2023/08/15 07:27:14;;;;;;;12.60;6.40;;;;;;;24.32;52.83;101586.88;5008319;28;20407;-72
2023/08/15 07:29:40;;;;;;;13.13;7.00;;;;;;;24.18;52.80;101584.47;5010856;28;20884;-73
2023/08/15 07:32:06;;;;;;;12.93;6.90;;;;;;;24.00;53.06;101588.16;5010590;28;20415;-72
2023/08/15 07:34:32;;;;;;;9.95;7.05;;;;;;;23.94;53.75;101572.03;5010740;28;20864;-71
2023/08/15 07:36:57;;;;;;;16.83;10.13;;;;;;;23.83;53.37;101571.78;5011054;28;20388;-72
2023/08/15 07:39:23;;;;;;;16.43;10.80;;;;;;;23.84;54.27;101568.03;5011032;28;20507;-72
2023/08/15 07:41:49;;;;;;;15.77;9.23;;;;;;;23.76;55.04;101581.91;5011085;28;20854;-71
2023/08/15 07:44:14;;;;;;;12.07;7.37;;;;;;;23.84;54.27;101580.72;5010962;28;20442;-72
2023/08/15 07:46:40;;;;;;;10.17;6.40;;;;;;;23.84;54.15;101586.16;5010766;28;20479;-73
2023/08/15 07:49:05;;;;;;;8.00;6.40;;;;;;;23.93;54.07;101592.03;5010768;28;20383;-71
2023/08/15 07:51:31;;;;;;;9.53;6.13;;;;;;;23.96;53.43;101578.03;5010339;28;20458;-72
2023/08/15 07:53:57;;;;;;;8.93;5.95;;;;;;;24.07;53.46;101593.41;5011100;28;20882;-72
2023/08/15 07:56:23;;;;;;;10.17;6.07;;;;;;;24.11;53.17;101608.16;5010273;28;20446;-71
2023/08/15 07:58:48;;;;;;;9.48;5.63;;;;;;;24.11;52.50;101612.72;5010682;28;20917;-71
2023/08/15 08:01:13;;;;;;;8.90;6.20;;;;;;;24.27;52.68;101595.72;5011002;28;20434;-72
2023/08/15 08:03:42;;;;;;;9.63;6.57;;;;;;;24.40;52.50;101591.94;5009960;28;20392;-72
2023/08/15 08:06:08;;;;;;;9.25;6.18;;;;;;;24.31;52.39;101587.94;5010504;28;20395;-71
2023/08/15 08:08:33;;;;;;;9.47;5.70;;;;;;;24.42;52.74;101581.66;5009725;28;20384;-71
2023/08/15 08:10:59;;;;;;;13.82;6.22;;;;;;;24.45;52.28;101600.13;5010278;28;20415;-72
2023/08/15 08:13:25;;;;;;;7.50;5.90;;;;;;;24.57;52.07;101600.94;5010270;28;20477;-71
2023/08/15 08:15:50;;;;;;;9.02;5.60;;;;;;;24.70;51.77;101602.53;5010181;28;20431;-72
2023/08/15 08:18:16;;;;;;;8.37;5.60;;;;;;;24.75;50.72;101601.81;5009613;28;20429;-71
2023/08/15 08:20:41;;;;;;;7.30;5.40;;;;;;;24.76;50.83;101603.47;5010858;28;20722;-72
2023/08/15 08:23:08;;;;;;;7.70;6.03;;;;;;;24.82;51.05;101593.53;5009017;28;20395;-72
2023/08/15 08:25:33;;;;;;;7.80;5.70;;;;;;;25.01;51.23;101592.22;5012105;28;20405;-71
2023/08/15 08:27:59;;;;;;;10.77;6.20;;;;;;;24.98;51.58;101587.31;5010537;28;20387;-71
2023/08/15 08:30:25;;;;;;;8.87;6.47;;;;;;;25.11;51.42;101594.31;5010588;28;21176;-71
2023/08/15 08:32:53;;;;;;;8.98;6.25;;;;;;;25.22;51.44;101593.41;5009203;28;20448;-72
2023/08/15 08:35:19;;;;;;;10.63;6.20;;;;;;;25.31;51.24;101585.69;5009535;28;20392;-71
2023/08/15 08:37:47;;;;;;;9.13;6.20;;;;;;;25.34;51.10;101590.66;5009520;28;20721;-72
2023/08/15 08:40:13;;;;;;;9.05;6.28;;;;;;;25.40;51.09;101588.81;5008283;28;20416;-72
2023/08/15 08:42:41;;;;;;;8.57;5.90;;;;;;;25.51;50.65;101594.16;5008923;28;21317;-73
2023/08/15 08:45:10;;;;;;;8.93;6.40;;;;;;;25.59;50.85;101592.94;5008321;28;20395;-72
2023/08/15 08:47:38;;;;;;;11.95;6.90;;;;;;;25.78;51.03;101582.56;5010348;28;20463;-72
2023/08/15 08:50:06;;;;;;;12.70;5.45;;;;;;;25.91;50.58;101579.50;5009093;28;20376;-72
2023/08/15 08:52:31;;;;;;;11.85;5.55;;;;;;;25.97;50.14;101572.28;5009954;28;20407;-72
2023/08/15 08:54:57;;;;;;;8.70;5.17;;;;;;;26.13;49.81;101573.28;5010451;28;20392;-71
2023/08/15 08:57:27;;;;;;;8.90;4.63;;;;;;;26.13;48.66;101581.44;5010060;28;20935;-72
2023/08/15 08:59:55;;;;;;;6.97;4.97;;;;;;;26.24;48.82;101588.63;5009405;28;20414;-71
2023/08/15 09:02:22;;;;;;;9.32;4.72;;;;;;;26.21;47.71;101585.59;5009919;28;20403;-72
2023/08/15 09:04:48;;;;;;;8.10;5.07;;;;;;;26.22;47.91;101588.06;5008729;28;20466;-73
2023/08/15 09:07:17;;;;;;;7.65;4.50;;;;;;;26.31;47.46;101569.44;5009857;28;20404;-72
2023/08/15 09:09:43;;;;;;;6.60;4.40;;;;;;;26.32;47.47;101584.63;5010073;28;20446;-73
2023/08/15 09:12:08;;;;;;;7.40;4.47;;;;;;;26.41;47.09;101585.00;5009961;28;20443;-72
2023/08/15 09:14:43;;;;;;;8.68;4.63;;;;;;;26.49;46.43;101579.13;5008815;28;20454;-75
2023/08/15 09:17:11;;;;;;;6.72;4.35;;;;;;;26.53;46.11;101563.94;5008453;28;20761;-73
2023/08/15 09:19:40;;;;;;;10.85;5.05;;;;;;;26.52;46.10;101565.00;5010500;28;20412;-73
2023/08/15 09:22:06;;;;;;;7.07;4.10;;;;;;;26.54;46.15;101571.00;5009860;28;20960;-74
2023/08/15 09:24:31;;;;;;;6.85;4.32;;;;;;;26.43;45.17;101577.41;5010302;28;20482;-72
2023/08/15 09:27:04;;;;;;;7.17;4.23;;;;;;;26.35;45.53;101570.56;5010036;28;20458;-71
2023/08/15 09:29:33;;;;;;;6.47;3.92;;;;;;;26.42;45.20;101562.19;5009445;28;20392;-71
2023/08/15 09:31:59;;;;;;;6.40;4.07;;;;;;;26.42;45.36;101554.03;5010559;28;20440;-72
2023/08/15 09:34:24;;;;;;;5.57;3.80;;;;;;;26.37;45.05;101562.94;5010224;28;20414;-72
2023/08/15 09:36:50;;;;;;;7.80;3.87;;;;;;;26.27;44.80;101568.28;5010375;28;20935;-71
2023/08/15 09:39:16;;;;;;;4.88;3.97;;;;;;;26.23;44.87;101562.53;5010875;28;20455;-72
2023/08/15 09:41:42;;;;;;;6.97;4.63;;;;;;;26.21;45.20;101563.88;5011085;28;20412;-71
2023/08/15 09:44:07;;;;;;;7.97;4.20;;;;;;;26.25;45.03;101548.69;5010087;28;20384;-73
2023/08/15 09:46:33;;;;;;;6.95;4.00;;;;;;;26.43;45.29;101550.22;5010155;28;20845;-71
2023/08/15 09:49:00;;;;;;;10.77;3.97;;;;;;;26.53;45.25;101553.06;5010129;28;20539;-73
2023/08/15 09:51:26;;;;;;;5.85;3.97;;;;;;;26.68;45.05;101552.41;5010863;28;20395;-75
2023/08/15 09:53:52;;;;;;;9.93;5.00;;;;;;;26.64;45.15;101556.75;5010752;28;20394;-72
2023/08/15 09:56:20;;;;;;;6.68;3.90;;;;;;;26.56;45.26;101544.41;5010743;28;20420;-72
2023/08/15 09:58:45;;;;;;;5.55;4.07;;;;;;;26.67;44.82;101548.06;5010280;28;20823;-73
2023/08/15 10:01:14;;;;;;;6.47;4.20;;;;;;;26.70;44.51;101544.81;5010495;28;20470;-72
2023/08/15 10:03:41;;;;;;;8.68;4.43;;;;;;;26.51;44.49;101541.63;5010574;28;20403;-71
2023/08/15 10:06:09;;;;;;;7.15;3.97;;;;;;;26.44;44.57;101555.41;5010416;28;20718;-72
2023/08/15 10:08:39;;;;;;;8.80;4.25;;;;;;;26.35;44.30;101548.00;5010540;28;20380;-73
2023/08/15 10:11:09;;;;;;;5.85;3.60;;;;;;;26.38;44.54;101529.28;5010117;28;20388;-71
2023/08/15 10:13:38;;;;;;;5.28;3.95;;;;;;;26.48;44.50;101540.22;5010345;28;20447;-71
2023/08/15 10:16:06;;;;;;;6.75;3.90;;;;;;;26.22;45.03;101541.06;5010412;28;20384;-72
2023/08/15 10:18:32;;;;;;;7.93;4.10;;;;;;;26.24;45.03;101547.06;5010193;28;20698;-73
2023/08/15 10:20:58;;;;;;;6.32;4.10;;;;;;;26.31;45.00;101536.81;5010359;28;20388;-72
2023/08/15 10:23:31;;;;;;;6.05;4.15;;;;;;;26.40;44.90;101529.00;5010570;28;20388;-72
2023/08/15 10:25:58;;;;;;;6.35;4.60;;;;;;;26.35;44.91;101505.31;5010291;28;20376;-72
2023/08/15 10:28:29;;;;;;;6.07;3.90;;;;;;;26.37;45.41;101526.81;5010816;28;20391;-71
2023/08/15 10:30:56;;;;;;;7.28;3.70;;;;;;;26.47;45.15;101511.41;5010385;28;20865;-71
2023/08/15 10:33:24;;;;;;;5.50;4.22;;;;;;;26.51;44.87;101500.84;5010643;28;20420;-74
2023/08/15 10:35:55;;;;;;;5.25;4.18;;;;;;;26.79;44.41;101497.00;5010709;28;20380;-72
2023/08/15 10:38:27;;;;;;;4.22;3.80;;;;;;;26.78;44.64;101495.41;5010672;28;20430;-72
2023/08/15 10:41:04;;;;;;;5.72;3.83;;;;;;;26.89;45.03;101493.56;5010406;28;20388;-71
2023/08/15 10:43:32;;;;;;;5.67;4.10;;;;;;;27.13;44.01;101493.19;5010872;28;20372;-72
2023/08/15 10:46:01;;;;;;;4.57;3.90;;;;;;;27.19;44.00;101492.13;5010593;28;20890;-72
2023/08/15 10:48:49;;;;;;;5.85;3.65;;;;;;;27.35;42.99;101483.03;5010590;28;20380;-71
2023/08/15 10:51:35;;;;;;;4.15;3.70;;;;;;;27.39;42.65;101478.69;5010393;28;20380;-72
2023/08/15 10:54:06;;;;;;;6.40;3.58;;;;;;;27.44;42.96;101477.88;5010379;28;20380;-72
2023/08/15 10:56:33;;;;;;;6.30;4.03;;;;;;;27.34;42.80;101481.38;5010071;28;20380;-72
2023/08/15 10:59:07;;;;;;;5.20;4.22;;;;;;;27.27;43.17;101494.41;5011245;28;20408;-72
2023/08/15 11:01:35;;;;;;;4.90;4.15;;;;;;;27.08;43.36;101480.34;5013851;28;20865;-72
2023/08/15 11:04:01;;;;;;;7.22;4.05;;;;;;;27.12;43.16;101478.78;5014172;28;20376;-72
2023/08/15 11:06:29;;;;;;;7.65;4.30;;;;;;;27.14;43.36;101464.91;5013715;28;20372;-71
2023/08/15 11:08:58;;;;;;;5.57;3.90;;;;;;;27.41;43.18;101476.50;5014135;28;20474;-72
2023/08/15 11:11:24;;;;;;;6.15;4.38;;;;;;;27.22;43.46;101459.75;5015507;28;20403;-72
2023/08/15 11:13:52;;;;;;;8.77;4.20;;;;;;;27.44;43.48;101459.66;5015500;28;20388;-73
2023/08/15 11:16:22;;;;;;;5.23;4.00;;;;;;;27.16;43.63;101460.00;5013567;28;20721;-72
2023/08/15 11:18:49;;;;;;;6.10;4.47;;;;;;;27.20;44.28;101452.94;5013522;28;20507;-71
2023/08/15 11:21:16;;;;;;;5.45;4.43;;;;;;;27.20;44.17;101440.16;5013800;28;20372;-72